createdAt,value
2022-10-09T00:02:26.291Z,2.67
2022-10-09T00:05:13.316Z,2.60
2022-10-09T00:08:00.272Z,2.70
2022-10-09T00:10:47.144Z,3.33
2022-10-09T00:13:34.643Z,2.97
2022-10-09T00:16:24.321Z,2.80
2022-10-09T00:19:11.266Z,3.17
2022-10-09T00:21:58.271Z,2.60
2022-10-09T00:24:45.242Z,2.93
2022-10-09T00:27:32.700Z,2.50
2022-10-09T00:30:19.633Z,2.10
2022-10-09T00:33:06.580Z,2.30
2022-10-09T00:35:53.473Z,3.00
2022-10-09T00:38:40.613Z,2.67
2022-10-09T00:41:30.561Z,2.80
2022-10-09T00:44:57.178Z,2.80
2022-10-09T00:47:48.892Z,2.23
2022-10-09T00:50:52.790Z,2.40
2022-10-09T00:53:39.933Z,2.53
2022-10-09T00:56:27.960Z,2.60
2022-10-09T00:59:15.937Z,2.50
2022-10-09T01:02:03.030Z,2.30
2022-10-09T01:04:50.125Z,2.70
2022-10-09T01:08:05.388Z,2.30
2022-10-09T01:11:20.870Z,2.50
2022-10-09T01:14:10.882Z,2.40
2022-10-09T01:17:27.906Z,2.20
2022-10-09T01:20:31.580Z,2.00
2022-10-09T01:23:42.599Z,2.10
2022-10-09T01:27:03.047Z,2.33
2022-10-09T01:29:55.163Z,2.30
2022-10-09T01:32:51.158Z,2.53
2022-10-09T01:35:39.757Z,1.97
2022-10-09T01:38:29.463Z,1.90
2022-10-09T01:41:16.954Z,2.20
2022-10-09T01:44:03.922Z,2.40
2022-10-09T01:46:51.006Z,2.47
2022-10-09T01:49:59.422Z,2.00
2022-10-09T01:52:48.538Z,2.50
2022-10-09T01:55:47.511Z,2.20
2022-10-09T01:58:51.308Z,1.80
2022-10-09T02:01:39.796Z,1.70
2022-10-09T02:04:28.473Z,2.30
2022-10-09T02:07:16.614Z,1.90
2022-10-09T02:10:05.859Z,2.10
2022-10-09T02:13:02.025Z,2.00
2022-10-09T02:16:10.380Z,2.10
2022-10-09T02:19:05.893Z,2.10
2022-10-09T02:21:57.338Z,2.00
2022-10-09T02:24:45.235Z,1.80
2022-10-09T02:27:33.075Z,2.10
2022-10-09T02:30:20.758Z,1.87
2022-10-09T02:33:07.577Z,2.20
2022-10-09T02:35:54.729Z,2.63
2022-10-09T02:38:41.574Z,2.10
2022-10-09T02:41:28.625Z,1.87
2022-10-09T02:44:15.613Z,1.97
2022-10-09T02:47:02.466Z,2.23
2022-10-09T02:49:49.270Z,2.00
2022-10-09T02:52:36.188Z,2.00
2022-10-09T02:55:23.113Z,2.20
2022-10-09T02:58:10.065Z,1.93
2022-10-09T03:00:56.988Z,2.00
2022-10-09T03:03:45.096Z,1.80
2022-10-09T03:06:32.096Z,1.80
2022-10-09T03:09:18.912Z,1.50
2022-10-09T03:12:05.659Z,1.80
2022-10-09T03:14:52.522Z,1.80
2022-10-09T03:17:39.770Z,2.40
2022-10-09T03:20:26.707Z,1.87
2022-10-09T03:23:14.151Z,1.63
2022-10-09T03:26:04.310Z,1.80
2022-10-09T03:28:52.761Z,1.60
2022-10-09T03:31:51.050Z,1.90
2022-10-09T03:34:38.981Z,1.60
2022-10-09T03:37:25.898Z,1.77
2022-10-09T03:40:12.902Z,1.60
2022-10-09T03:42:59.739Z,1.90
2022-10-09T03:45:47.124Z,1.60
2022-10-09T03:48:34.587Z,1.50
2022-10-09T03:51:21.393Z,1.37
2022-10-09T03:54:08.283Z,1.40
2022-10-09T03:56:55.138Z,1.40
2022-10-09T03:59:42.034Z,1.43
2022-10-09T04:02:29.371Z,1.50
2022-10-09T04:05:16.750Z,1.33
2022-10-09T04:08:03.895Z,1.30
2022-10-09T04:10:57.780Z,1.50
2022-10-09T04:13:44.815Z,1.30
2022-10-09T04:16:31.919Z,1.30
2022-10-09T04:19:18.878Z,1.60
2022-10-09T04:22:05.908Z,1.30
2022-10-09T04:24:54.658Z,1.30
2022-10-09T04:27:41.540Z,1.47
2022-10-09T04:30:28.500Z,1.60
2022-10-09T04:33:15.437Z,1.40
2022-10-09T04:36:02.597Z,1.40
2022-10-09T04:38:49.779Z,1.60
2022-10-09T04:41:38.435Z,1.43
2022-10-09T04:44:26.605Z,1.20
2022-10-09T04:47:13.587Z,1.20
2022-10-09T04:50:00.603Z,1.43
2022-10-09T04:52:47.746Z,1.40
2022-10-09T04:55:53.619Z,1.20
2022-10-09T04:58:40.782Z,1.43
2022-10-09T05:01:28.692Z,1.47
2022-10-09T05:04:15.530Z,1.40
2022-10-09T05:07:02.387Z,1.23
2022-10-09T05:09:49.309Z,1.20
2022-10-09T05:12:36.184Z,1.33
2022-10-09T05:15:23.262Z,1.40
2022-10-09T05:18:10.103Z,1.50
2022-10-09T05:20:57.325Z,1.20
2022-10-09T05:23:44.637Z,1.50
2022-10-09T05:26:31.430Z,1.30
2022-10-09T05:29:18.315Z,1.30
2022-10-09T05:32:05.172Z,1.40
2022-10-09T05:34:52.025Z,1.23
2022-10-09T05:37:38.886Z,1.10
2022-10-09T05:40:29.100Z,1.60
2022-10-09T05:43:16.152Z,1.30
2022-10-09T05:46:06.174Z,1.50
2022-10-09T05:49:00.246Z,0.90
2022-10-09T05:51:47.117Z,1.20
2022-10-09T05:54:33.981Z,1.30
2022-10-09T05:57:20.855Z,1.40
2022-10-09T06:00:08.523Z,1.30
2022-10-09T06:02:59.065Z,1.30
2022-10-09T06:05:45.843Z,1.40
2022-10-09T06:08:34.155Z,1.30
2022-10-09T06:11:28.230Z,1.13
2022-10-09T06:14:15.256Z,1.60
2022-10-09T06:17:02.134Z,1.53
2022-10-09T06:19:48.969Z,1.30
2022-10-09T06:22:35.747Z,1.23
2022-10-09T06:25:22.527Z,1.67
2022-10-09T06:28:09.369Z,1.70
2022-10-09T06:31:17.096Z,1.57
2022-10-09T06:34:04.707Z,1.80
2022-10-09T06:36:51.588Z,1.80
2022-10-09T06:39:38.362Z,2.10
2022-10-09T06:42:25.191Z,1.80
2022-10-09T06:45:17.429Z,1.70
2022-10-09T06:48:04.396Z,2.10
2022-10-09T06:50:51.520Z,1.70
2022-10-09T06:53:43.870Z,1.70
2022-10-09T06:56:31.888Z,1.57
2022-10-09T06:59:18.736Z,1.50
2022-10-09T07:02:06.111Z,1.40
2022-10-09T07:04:52.996Z,1.53
2022-10-09T07:07:40.968Z,1.73
2022-10-09T07:10:27.785Z,1.60
2022-10-09T07:13:14.594Z,1.53
2022-10-09T07:16:04.664Z,1.23
2022-10-09T07:18:52.565Z,1.50
2022-10-09T07:21:41.961Z,1.70
2022-10-09T07:24:28.830Z,1.70
2022-10-09T07:27:15.682Z,1.60
2022-10-09T07:30:02.542Z,1.80
2022-10-09T07:32:51.567Z,1.80
2022-10-09T07:35:40.975Z,1.80
2022-10-09T07:38:29.042Z,1.30
2022-10-09T07:41:15.843Z,1.57
2022-10-09T07:44:02.874Z,1.70
2022-10-09T07:46:51.518Z,1.67
2022-10-09T07:49:38.342Z,1.70
2022-10-09T07:52:25.223Z,1.57
2022-10-09T07:55:12.026Z,1.60
2022-10-09T07:57:58.872Z,1.50
2022-10-09T08:00:45.777Z,1.63
2022-10-09T08:03:33.324Z,1.50
2022-10-09T08:06:20.560Z,1.90
2022-10-09T08:09:08.092Z,1.60
2022-10-09T08:11:54.847Z,2.03
2022-10-09T08:14:41.950Z,2.30
2022-10-09T08:17:28.857Z,1.90
2022-10-09T08:20:15.745Z,2.13
2022-10-09T08:23:02.648Z,1.93
2022-10-09T08:25:49.919Z,2.10
2022-10-09T08:28:36.734Z,2.07
2022-10-09T08:31:24.377Z,1.97
2022-10-09T08:34:12.004Z,1.87
2022-10-09T08:36:58.822Z,1.90
2022-10-09T08:39:45.642Z,1.90
2022-10-09T08:42:39.743Z,1.93
2022-10-09T08:45:27.315Z,1.97
2022-10-09T08:48:24.304Z,1.73
2022-10-09T08:51:21.642Z,2.00
2022-10-09T08:54:22.565Z,1.70
2022-10-09T08:57:21.337Z,1.97
2022-10-09T09:00:22.852Z,2.23
2022-10-09T09:03:43.309Z,2.73
2022-10-09T09:06:42.007Z,12.70
2022-10-09T09:09:53.932Z,20.70
2022-10-09T09:13:01.080Z,26.10
2022-10-09T09:15:55.591Z,20.40
2022-10-09T09:19:04.147Z,22.63
2022-10-09T09:21:53.338Z,24.57
2022-10-09T09:24:40.144Z,24.53
2022-10-09T09:27:34.957Z,21.10
2022-10-09T09:30:27.811Z,23.50
2022-10-09T09:33:25.370Z,19.20
2022-10-09T09:36:16.292Z,13.07
2022-10-09T09:39:45.561Z,15.17
2022-10-09T09:42:10.131Z,12.97
2022-10-09T09:45:06.948Z,11.97
2022-10-09T09:47:59.783Z,12.43
2022-10-09T09:51:04.980Z,11.97
2022-10-09T09:54:07.811Z,10.47
2022-10-09T09:57:12.330Z,8.73
2022-10-09T10:00:19.901Z,6.70
2022-10-09T10:03:15.088Z,6.87
2022-10-09T10:06:02.240Z,6.47
2022-10-09T10:09:06.438Z,5.40
2022-10-09T10:12:03.967Z,8.60
2022-10-09T10:14:51.326Z,9.27
2022-10-09T10:17:38.449Z,8.10
2022-10-09T10:20:26.992Z,7.93
2022-10-09T10:23:24.987Z,7.63
2022-10-09T10:26:46.574Z,7.30
2022-10-09T10:29:38.588Z,6.97
2022-10-09T10:32:38.906Z,8.50
2022-10-09T10:35:42.220Z,7.93
2022-10-09T10:38:55.605Z,6.00
2022-10-09T10:41:52.363Z,6.73
2022-10-09T10:44:42.903Z,6.77
2022-10-09T10:47:35.525Z,6.23
2022-10-09T10:50:27.993Z,5.97
2022-10-09T10:53:59.728Z,5.23
2022-10-09T10:57:08.158Z,5.63
2022-10-09T10:59:58.226Z,5.00
2022-10-09T11:03:07.139Z,5.60
2022-10-09T11:06:12.494Z,5.30
2022-10-09T11:09:21.582Z,5.00
2022-10-09T11:12:47.403Z,5.47
2022-10-09T11:16:09.005Z,4.77
2022-10-09T11:19:35.126Z,4.43
2022-10-09T11:23:05.629Z,5.30
2022-10-09T11:26:29.007Z,3.90
2022-10-09T11:29:23.085Z,4.33
2022-10-09T11:32:27.025Z,4.33
2022-10-09T11:35:18.741Z,3.53
2022-10-09T11:38:21.873Z,4.17
2022-10-09T11:41:09.411Z,3.90
2022-10-09T11:44:21.349Z,3.80
2022-10-09T11:47:23.125Z,4.20
2022-10-09T11:50:18.277Z,3.93
2022-10-09T11:53:13.260Z,3.67
2022-10-09T11:56:21.472Z,3.53
2022-10-09T11:59:22.557Z,3.73
2022-10-09T12:02:15.701Z,3.07
2022-10-09T12:05:16.275Z,2.97
2022-10-09T12:08:11.995Z,2.90
2022-10-09T12:11:09.200Z,3.13
2022-10-09T12:14:00.372Z,2.37
2022-10-09T12:16:47.207Z,2.60
2022-10-09T12:19:39.999Z,2.80
2022-10-09T12:22:34.748Z,2.57
2022-10-09T12:25:27.913Z,2.33
2022-10-09T12:28:45.629Z,2.60
2022-10-09T12:31:39.836Z,2.43
2022-10-09T12:34:32.221Z,2.60
2022-10-09T12:37:22.356Z,2.40
2022-10-09T12:40:26.356Z,2.80
2022-10-09T12:43:17.350Z,2.30
2022-10-09T12:46:04.624Z,2.37
2022-10-09T12:48:51.787Z,2.20
2022-10-09T12:51:38.706Z,2.50
2022-10-09T12:54:27.690Z,2.00
2022-10-09T12:57:16.554Z,2.13
2022-10-09T13:00:04.810Z,2.57
2022-10-09T13:02:53.389Z,1.93
2022-10-09T13:05:42.018Z,1.80
2022-10-09T13:08:38.436Z,2.00
2022-10-09T13:11:43.073Z,2.13
2022-10-09T13:14:32.961Z,2.10
2022-10-09T13:17:35.976Z,2.23
2022-10-09T13:20:32.356Z,1.90
2022-10-09T13:23:28.999Z,1.97
2022-10-09T13:26:30.200Z,1.77
2022-10-09T13:29:17.145Z,2.20
2022-10-09T13:32:04.010Z,1.70
2022-10-09T13:34:54.865Z,1.77
2022-10-09T13:37:42.065Z,1.90
2022-10-09T13:40:28.946Z,1.53
2022-10-09T13:43:22.877Z,1.80
2022-10-09T13:46:09.738Z,1.67
2022-10-09T13:48:56.613Z,1.60
2022-10-09T13:51:43.590Z,1.50
2022-10-09T13:54:30.444Z,1.37
2022-10-09T13:57:17.251Z,1.20
2022-10-09T14:00:06.026Z,1.87
2022-10-09T14:02:58.970Z,1.43
2022-10-09T14:05:45.866Z,1.63
2022-10-09T14:08:32.729Z,1.40
2022-10-09T14:11:19.941Z,1.40
2022-10-09T14:14:06.788Z,1.93
2022-10-09T14:16:53.670Z,1.53
2022-10-09T14:19:40.587Z,1.43
2022-10-09T14:22:27.446Z,1.60
2022-10-09T14:25:14.206Z,1.50
2022-10-09T14:28:01.066Z,1.33
2022-10-09T14:30:47.879Z,1.50
2022-10-09T14:33:34.759Z,1.10
2022-10-09T14:36:21.645Z,1.40
2022-10-09T14:39:08.698Z,1.40
2022-10-09T14:41:55.540Z,1.20
2022-10-09T14:44:42.392Z,1.33
2022-10-09T14:47:29.186Z,1.23
2022-10-09T14:50:16.169Z,1.20
2022-10-09T14:53:03.431Z,1.40
2022-10-09T14:55:50.314Z,1.30
2022-10-09T14:58:38.126Z,1.00
2022-10-09T15:01:25.155Z,1.20
2022-10-09T15:04:14.043Z,1.57
2022-10-09T15:07:01.026Z,1.30
2022-10-09T15:09:47.819Z,1.27
2022-10-09T15:12:34.617Z,1.00
2022-10-09T15:15:21.439Z,0.97
2022-10-09T15:18:08.269Z,1.20
2022-10-09T15:20:55.724Z,1.27
2022-10-09T15:23:43.234Z,1.20
2022-10-09T15:26:38.334Z,1.00
2022-10-09T15:29:25.138Z,1.40
2022-10-09T15:32:12.065Z,1.50
2022-10-09T15:34:59.149Z,1.30
2022-10-09T15:37:45.956Z,1.10
2022-10-09T15:40:44.819Z,1.03
2022-10-09T15:43:37.524Z,1.00
2022-10-09T15:46:26.946Z,1.10
2022-10-09T15:49:13.901Z,1.00
2022-10-09T15:52:00.711Z,1.20
2022-10-09T15:54:47.518Z,1.30
2022-10-09T15:57:34.307Z,1.07
2022-10-09T16:00:21.062Z,1.17
2022-10-09T16:03:08.089Z,1.17
2022-10-09T16:05:56.177Z,1.07
2022-10-09T16:08:43.590Z,1.07
2022-10-09T16:11:31.027Z,1.20
2022-10-09T16:14:17.879Z,1.00
2022-10-09T16:17:06.578Z,1.07
2022-10-09T16:19:57.150Z,1.10
2022-10-09T16:22:44.609Z,1.10
2022-10-09T16:25:31.398Z,1.13
2022-10-09T16:28:18.236Z,1.60
2022-10-09T16:31:05.366Z,1.10
2022-10-09T16:33:52.477Z,0.93
2022-10-09T16:36:39.451Z,1.20
2022-10-09T16:39:26.230Z,0.90
2022-10-09T16:42:13.192Z,1.00
2022-10-09T16:45:00.520Z,1.10
2022-10-09T16:47:48.627Z,0.60
2022-10-09T16:50:40.797Z,1.00
2022-10-09T16:53:27.571Z,1.00
2022-10-09T16:56:17.386Z,1.10
2022-10-09T16:59:07.681Z,0.97
2022-10-09T17:01:55.708Z,1.20
2022-10-09T17:04:42.528Z,0.90
2022-10-09T17:07:29.442Z,1.00
2022-10-09T17:10:16.258Z,1.00
2022-10-09T17:13:03.019Z,0.90
2022-10-09T17:15:49.824Z,1.27
2022-10-09T17:18:37.250Z,0.90
2022-10-09T17:21:26.769Z,0.80
2022-10-09T17:24:17.690Z,1.17
2022-10-09T17:27:08.865Z,1.00
2022-10-09T17:29:55.626Z,1.00
2022-10-09T17:32:42.399Z,1.10
2022-10-09T17:35:29.181Z,1.50
2022-10-09T17:38:15.980Z,1.20
2022-10-09T17:41:07.085Z,1.13
2022-10-09T17:43:55.752Z,1.20
2022-10-09T17:46:42.709Z,1.17
2022-10-09T17:49:29.486Z,1.50
2022-10-09T17:52:16.309Z,1.50
2022-10-09T17:55:03.200Z,1.60
2022-10-09T17:57:50.245Z,1.37
2022-10-09T18:00:38.602Z,1.50
2022-10-09T18:03:25.443Z,1.83
2022-10-09T18:06:15.443Z,1.67
2022-10-09T18:09:03.567Z,1.77
2022-10-09T18:11:50.368Z,1.77
2022-10-09T18:14:37.143Z,1.90
2022-10-09T18:17:24.699Z,1.90
2022-10-09T18:20:11.616Z,2.03
2022-10-09T18:22:58.631Z,1.90
2022-10-09T18:25:45.518Z,1.90
2022-10-09T18:28:32.345Z,2.10
2022-10-09T18:31:20.803Z,1.93
2022-10-09T18:34:07.695Z,2.10
2022-10-09T18:36:54.655Z,2.30
2022-10-09T18:39:41.478Z,2.10
2022-10-09T18:42:28.239Z,2.40
2022-10-09T18:45:16.186Z,2.20
2022-10-09T18:48:03.454Z,2.20
2022-10-09T18:50:50.409Z,2.50
2022-10-09T18:53:37.996Z,2.50
2022-10-09T18:56:25.674Z,2.30
2022-10-09T18:59:16.483Z,2.33
2022-10-09T19:02:03.712Z,2.57
2022-10-09T19:04:50.478Z,2.10
2022-10-09T19:07:37.548Z,2.23
2022-10-09T19:10:24.513Z,2.67
2022-10-09T19:13:11.297Z,2.40
2022-10-09T19:15:58.663Z,2.43
2022-10-09T19:18:45.497Z,2.37
2022-10-09T19:21:32.318Z,2.23
2022-10-09T19:24:19.107Z,2.13
2022-10-09T19:27:05.946Z,2.67
2022-10-09T19:29:52.945Z,2.30
2022-10-09T19:32:39.741Z,2.70
2022-10-09T19:35:26.543Z,2.63
2022-10-09T19:38:13.659Z,2.53
2022-10-09T19:41:12.265Z,2.40
2022-10-09T19:44:00.442Z,2.70
2022-10-09T19:46:48.078Z,2.73
2022-10-09T19:49:34.910Z,2.87
2022-10-09T19:52:23.076Z,2.37
2022-10-09T19:55:09.873Z,2.67
2022-10-09T19:57:57.755Z,2.73
2022-10-09T20:00:46.673Z,2.57
2022-10-09T20:03:33.450Z,2.57
2022-10-09T20:06:20.279Z,2.90
2022-10-09T20:09:08.014Z,2.83
2022-10-09T20:11:54.789Z,3.00
2022-10-09T20:14:41.561Z,2.73
2022-10-09T20:17:28.477Z,2.83
2022-10-09T20:20:15.341Z,2.83
2022-10-09T20:23:02.099Z,2.93
2022-10-09T20:25:58.014Z,2.83
2022-10-09T20:28:46.079Z,2.80
2022-10-09T20:31:33.431Z,2.50
2022-10-09T20:34:20.258Z,2.63
2022-10-09T20:37:07.071Z,2.93
2022-10-09T20:39:53.934Z,2.83
2022-10-09T20:42:40.879Z,2.87
2022-10-09T20:45:27.645Z,2.77
2022-10-09T20:48:14.608Z,3.00
2022-10-09T20:51:01.805Z,3.13
2022-10-09T20:53:56.658Z,2.93
2022-10-09T20:56:46.613Z,2.70
2022-10-09T20:59:33.462Z,2.97
2022-10-09T21:02:20.250Z,2.33
2022-10-09T21:05:08.175Z,3.10
2022-10-09T21:07:54.922Z,3.27
2022-10-09T21:10:46.706Z,2.80
2022-10-09T21:13:34.985Z,2.83
2022-10-09T21:16:23.719Z,2.83
2022-10-09T21:19:11.402Z,2.80
2022-10-09T21:21:58.210Z,3.07
2022-10-09T21:24:45.055Z,3.07
2022-10-09T21:27:31.902Z,3.50
2022-10-09T21:30:18.674Z,2.70
2022-10-09T21:33:05.671Z,2.60
2022-10-09T21:35:55.242Z,2.77
2022-10-09T21:38:42.104Z,3.00
2022-10-09T21:41:29.034Z,3.17
2022-10-09T21:44:15.957Z,2.60
2022-10-09T21:47:02.750Z,2.63
2022-10-09T21:49:49.546Z,2.77
2022-10-09T21:52:36.371Z,2.87
2022-10-09T21:55:23.170Z,2.70
2022-10-09T21:58:10.155Z,3.13
2022-10-09T22:00:59.161Z,3.13
2022-10-09T22:03:46.101Z,2.87
2022-10-09T22:06:32.905Z,2.70
2022-10-09T22:09:19.966Z,2.77
2022-10-09T22:12:06.798Z,2.83
2022-10-09T22:14:53.663Z,2.63
2022-10-09T22:17:40.358Z,3.00
2022-10-09T22:20:28.064Z,3.00
2022-10-09T22:23:17.286Z,3.10
2022-10-09T22:26:17.025Z,3.10
2022-10-09T22:29:03.854Z,2.47
2022-10-09T22:31:50.706Z,2.70
2022-10-09T22:34:37.662Z,2.70
2022-10-09T22:37:24.494Z,2.90
2022-10-09T22:40:11.683Z,2.60
2022-10-09T22:42:58.503Z,2.73
2022-10-09T22:45:45.278Z,2.60
2022-10-09T22:48:32.068Z,2.70
2022-10-09T22:51:20.757Z,2.77
2022-10-09T22:54:08.068Z,3.07
2022-10-09T22:56:55.008Z,2.83
2022-10-09T22:59:41.821Z,3.07
2022-10-09T23:02:28.645Z,2.60
2022-10-09T23:05:15.396Z,2.63
2022-10-09T23:08:02.220Z,2.20
2022-10-09T23:10:49.980Z,2.60
2022-10-09T23:13:37.274Z,2.47
2022-10-09T23:16:25.140Z,2.47
2022-10-09T23:19:12.333Z,2.80
2022-10-09T23:21:59.082Z,2.57
2022-10-09T23:24:45.853Z,2.83
2022-10-09T23:27:32.634Z,2.40
2022-10-09T23:30:19.469Z,2.57
2022-10-09T23:33:06.450Z,2.83
2022-10-09T23:35:53.231Z,2.70
2022-10-09T23:38:40.398Z,2.57
2022-10-09T23:41:28.079Z,2.27
2022-10-09T23:44:17.744Z,2.67
2022-10-09T23:47:06.882Z,2.77
2022-10-09T23:49:53.674Z,2.40
2022-10-09T23:52:40.582Z,2.53
2022-10-09T23:55:27.353Z,2.60
2022-10-09T23:58:19.854Z,2.33
